createdAt,value
2023-08-28T00:00:21.521Z,72.39
2023-08-28T00:01:25.405Z,72.60
2023-08-28T00:02:27.836Z,73.67
2023-08-28T00:03:32.485Z,73.93
2023-08-28T00:04:34.896Z,73.85
2023-08-28T00:05:37.463Z,73.94
2023-08-28T00:06:40.838Z,73.99
2023-08-28T00:07:43.542Z,73.83
2023-08-28T00:08:45.973Z,72.34
2023-08-28T00:09:48.738Z,72.09
2023-08-28T00:10:54.580Z,71.72
2023-08-28T00:11:57.085Z,72.21
2023-08-28T00:12:59.724Z,72.09
2023-08-28T00:14:02.814Z,72.45
2023-08-28T00:15:05.936Z,73.18
2023-08-28T00:16:08.470Z,73.92
2023-08-28T00:17:10.786Z,73.78
2023-08-28T00:18:12.941Z,74.20
2023-08-28T00:19:15.586Z,74.06
2023-08-28T00:20:18.015Z,74.25
2023-08-28T00:21:21.178Z,74.36
2023-08-28T00:22:23.840Z,74.46
2023-08-28T00:23:26.044Z,74.37
2023-08-28T00:24:28.267Z,74.46
2023-08-28T00:25:30.473Z,74.27
2023-08-28T00:26:33.581Z,74.19
2023-08-28T00:27:37.626Z,74.41
2023-08-28T00:28:39.965Z,74.29
2023-08-28T00:29:42.671Z,73.99
2023-08-28T00:30:45.192Z,74.00
2023-08-28T00:31:47.530Z,73.77
2023-08-28T00:32:49.744Z,73.84
2023-08-28T00:33:53.729Z,73.86
2023-08-28T00:34:56.378Z,73.84
2023-08-28T00:35:59.052Z,73.86
2023-08-28T00:37:01.869Z,73.87
2023-08-28T00:38:04.233Z,73.69
2023-08-28T00:39:06.835Z,73.43
2023-08-28T00:40:12.262Z,73.01
2023-08-28T00:41:14.564Z,72.90
2023-08-28T00:42:18.880Z,72.17
2023-08-28T00:43:21.357Z,73.07
2023-08-28T00:44:24.791Z,73.33
2023-08-28T00:45:27.586Z,73.42
2023-08-28T00:46:31.305Z,72.58
2023-08-28T00:47:35.157Z,73.32
2023-08-28T00:48:39.783Z,73.27
2023-08-28T00:49:42.478Z,73.91
2023-08-28T00:50:47.785Z,74.11
2023-08-28T00:51:50.803Z,73.51
2023-08-28T00:52:53.326Z,74.42
2023-08-28T00:53:56.017Z,74.45
2023-08-28T00:54:58.810Z,73.75
2023-08-28T00:56:01.959Z,74.81
2023-08-28T00:57:06.490Z,75.02
2023-08-28T00:58:09.230Z,75.44
2023-08-28T00:59:11.618Z,75.54
2023-08-28T01:00:15.784Z,75.53
2023-08-28T01:01:18.263Z,75.52
2023-08-28T01:02:20.693Z,75.55
2023-08-28T01:03:23.400Z,75.37
2023-08-28T01:04:26.719Z,75.55
2023-08-28T01:05:59.609Z,75.83
2023-08-28T01:07:22.402Z,75.23
2023-08-28T01:08:50.772Z,75.91
2023-08-28T01:09:56.784Z,75.71
2023-08-28T01:11:02.960Z,76.15
2023-08-28T01:12:31.965Z,75.91
2023-08-28T01:13:38.552Z,76.61
2023-08-28T01:15:05.646Z,77.23
2023-08-28T01:16:09.373Z,76.63
2023-08-28T01:17:14.250Z,77.02
2023-08-28T01:18:19.753Z,76.71
2023-08-28T01:19:37.349Z,77.17
2023-08-28T01:20:40.895Z,77.80
2023-08-28T01:21:47.692Z,77.53
2023-08-28T01:22:59.928Z,77.92
2023-08-28T01:24:06.947Z,77.36
2023-08-28T01:25:11.137Z,77.62
2023-08-28T01:26:13.887Z,77.47
2023-08-28T01:27:16.945Z,77.83
2023-08-28T01:28:20.497Z,78.11
2023-08-28T01:29:22.813Z,79.17
2023-08-28T01:30:25.289Z,78.42
2023-08-28T01:31:28.165Z,79.14
2023-08-28T01:32:32.588Z,78.90
2023-08-28T01:33:36.705Z,79.30
2023-08-28T01:34:41.738Z,78.60
2023-08-28T01:35:50.855Z,78.51
2023-08-28T01:36:56.912Z,78.48
2023-08-28T01:38:14.792Z,78.00
2023-08-28T01:39:21.183Z,77.58
2023-08-28T01:40:27.397Z,78.18
2023-08-28T01:41:30.617Z,78.56
2023-08-28T01:42:36.387Z,78.46
2023-08-28T01:43:45.249Z,77.65
2023-08-28T01:44:52.196Z,78.57
2023-08-28T01:45:55.386Z,78.74
2023-08-28T01:46:58.906Z,78.46
2023-08-28T01:48:01.715Z,78.49
2023-08-28T01:49:06.403Z,79.39
2023-08-28T01:50:11.256Z,79.01
2023-08-28T01:51:13.679Z,79.00
2023-08-28T01:52:15.766Z,79.26
2023-08-28T01:53:18.109Z,79.52
2023-08-28T01:54:21.411Z,79.66
2023-08-28T01:55:47.187Z,80.07
2023-08-28T01:56:52.063Z,79.75
2023-08-28T01:57:54.534Z,80.08
2023-08-28T01:58:58.902Z,80.49
2023-08-28T02:00:02.227Z,80.45
2023-08-28T02:01:05.095Z,79.90
2023-08-28T02:02:07.716Z,80.30
2023-08-28T02:03:10.817Z,80.07
2023-08-28T02:04:13.283Z,80.05
2023-08-28T02:05:15.883Z,80.78
2023-08-28T02:06:18.643Z,80.82
2023-08-28T02:07:21.150Z,80.30
2023-08-28T02:08:24.052Z,80.31
2023-08-28T02:09:26.586Z,80.49
2023-08-28T02:10:29.376Z,79.87
2023-08-28T02:11:33.939Z,80.29
2023-08-28T02:12:36.108Z,80.80
2023-08-28T02:13:38.851Z,80.94
2023-08-28T02:14:41.494Z,80.75
2023-08-28T02:15:44.021Z,81.01
2023-08-28T02:16:47.336Z,80.33
2023-08-28T02:17:49.815Z,80.02
2023-08-28T02:18:52.209Z,78.97
2023-08-28T02:19:55.916Z,79.90
2023-08-28T02:21:00.466Z,80.07
2023-08-28T02:22:02.749Z,80.80
2023-08-28T02:23:06.301Z,80.90
2023-08-28T02:24:09.049Z,80.75
2023-08-28T02:25:11.596Z,80.17
2023-08-28T02:26:14.094Z,80.32
2023-08-28T02:27:16.540Z,81.24
2023-08-28T02:28:19.406Z,81.55
2023-08-28T02:29:22.043Z,80.63
2023-08-28T02:30:24.646Z,80.53
2023-08-28T02:31:28.710Z,80.21
2023-08-28T02:32:31.110Z,80.59
2023-08-28T02:33:35.368Z,80.71
2023-08-28T02:34:37.685Z,79.92
2023-08-28T02:35:40.949Z,80.41
2023-08-28T02:36:43.902Z,80.68
2023-08-28T02:37:46.185Z,80.79
2023-08-28T02:38:48.674Z,80.58
2023-08-28T02:39:51.136Z,80.70
2023-08-28T02:40:53.593Z,80.50
2023-08-28T02:41:56.165Z,80.58
2023-08-28T02:43:01.679Z,80.35
2023-08-28T02:44:04.563Z,80.89
2023-08-28T02:45:09.005Z,80.31
2023-08-28T02:46:13.228Z,80.80
2023-08-28T02:47:15.835Z,80.34
2023-08-28T02:48:18.568Z,81.27
2023-08-28T02:49:21.192Z,81.69
2023-08-28T02:50:23.884Z,81.44
2023-08-28T02:51:26.710Z,81.12
2023-08-28T02:52:29.132Z,81.28
2023-08-28T02:53:31.463Z,81.14
2023-08-28T02:54:34.011Z,80.92
2023-08-28T02:55:41.872Z,80.61
2023-08-28T02:56:45.900Z,80.75
2023-08-28T02:57:48.377Z,80.69
2023-08-28T02:58:51.877Z,80.73
2023-08-28T02:59:55.449Z,80.73
2023-08-28T03:00:59.355Z,81.14
2023-08-28T03:02:01.744Z,81.03
2023-08-28T03:03:05.780Z,80.67
2023-08-28T03:04:08.804Z,80.56
2023-08-28T03:05:11.999Z,80.33
2023-08-28T03:06:14.981Z,80.02
2023-08-28T03:07:17.473Z,79.63
2023-08-28T03:08:21.813Z,79.63
2023-08-28T03:09:24.256Z,79.84
2023-08-28T03:10:29.006Z,79.62
2023-08-28T03:11:31.382Z,79.27
2023-08-28T03:12:34.111Z,79.58
2023-08-28T03:13:36.533Z,79.43
2023-08-28T03:14:38.798Z,79.34
2023-08-28T03:15:42.825Z,78.75
2023-08-28T03:16:46.452Z,78.77
2023-08-28T03:17:49.782Z,79.30
2023-08-28T03:18:52.180Z,79.43
2023-08-28T03:19:55.578Z,79.54
2023-08-28T03:20:57.895Z,79.61
2023-08-28T03:22:01.047Z,78.85
2023-08-28T03:23:03.829Z,79.42
2023-08-28T03:24:07.199Z,79.53
2023-08-28T03:25:09.555Z,79.46
2023-08-28T03:26:12.823Z,79.41
2023-08-28T03:27:16.079Z,79.41
2023-08-28T03:28:18.896Z,79.06
2023-08-28T03:29:23.309Z,78.15
2023-08-28T03:30:25.728Z,78.36
2023-08-28T03:31:28.269Z,78.20
2023-08-28T03:32:30.679Z,78.04
2023-08-28T03:33:34.560Z,77.30
2023-08-28T03:34:36.998Z,77.70
2023-08-28T03:35:39.482Z,77.37
2023-08-28T03:36:42.661Z,77.68
2023-08-28T03:37:44.780Z,77.68
2023-08-28T03:38:49.134Z,77.56
2023-08-28T03:39:52.716Z,77.43
2023-08-28T03:40:56.438Z,77.16
2023-08-28T03:41:58.994Z,77.01
2023-08-28T03:43:01.740Z,75.78
2023-08-28T03:44:04.934Z,75.27
2023-08-28T03:45:08.702Z,74.97
2023-08-28T03:46:12.096Z,75.69
2023-08-28T03:47:14.670Z,75.89
2023-08-28T03:48:17.053Z,75.14
2023-08-28T03:49:19.653Z,75.04
2023-08-28T03:50:23.026Z,75.22
2023-08-28T03:51:25.335Z,75.70
2023-08-28T03:52:28.169Z,75.59
2023-08-28T03:53:31.212Z,75.56
2023-08-28T03:54:33.692Z,75.53
2023-08-28T03:55:36.594Z,75.46
2023-08-28T03:56:43.374Z,75.77
2023-08-28T03:57:46.112Z,76.04
2023-08-28T03:58:48.863Z,75.99
2023-08-28T03:59:51.362Z,76.00
2023-08-28T04:00:56.602Z,75.89
2023-08-28T04:02:00.591Z,75.68
2023-08-28T04:03:03.972Z,75.62
2023-08-28T04:04:07.370Z,75.56
2023-08-28T04:05:10.207Z,75.16
2023-08-28T04:06:13.259Z,75.43
2023-08-28T04:07:28.686Z,74.83
2023-08-28T04:08:31.004Z,74.83
2023-08-28T04:09:33.200Z,75.28
2023-08-28T04:10:35.601Z,75.24
2023-08-28T04:11:37.868Z,74.85
2023-08-28T04:12:40.757Z,75.11
2023-08-28T04:13:43.828Z,75.78
2023-08-28T04:14:46.419Z,75.92
2023-08-28T04:15:50.816Z,76.08
2023-08-28T04:16:54.155Z,75.88
2023-08-28T04:17:58.762Z,75.58
2023-08-28T04:19:01.342Z,75.69
2023-08-28T04:20:16.708Z,75.95
2023-08-28T04:21:20.049Z,75.66
2023-08-28T04:22:23.313Z,75.80
2023-08-28T04:23:25.565Z,75.88
2023-08-28T04:24:28.965Z,76.18
2023-08-28T04:25:32.365Z,76.09
2023-08-28T04:26:35.384Z,76.50
2023-08-28T04:27:38.273Z,76.19
2023-08-28T04:28:41.137Z,76.27
2023-08-28T04:29:44.029Z,76.05
2023-08-28T04:30:47.647Z,75.74
2023-08-28T04:31:50.117Z,75.74
2023-08-28T04:32:53.857Z,75.44
2023-08-28T04:33:56.817Z,75.15
2023-08-28T04:34:59.560Z,74.43
2023-08-28T04:36:03.241Z,74.13
2023-08-28T04:37:05.520Z,73.70
2023-08-28T04:38:07.949Z,73.69
2023-08-28T04:39:11.279Z,74.65
2023-08-28T04:40:15.499Z,74.45
2023-08-28T04:41:18.054Z,73.71
2023-08-28T04:42:20.584Z,73.97
2023-08-28T04:43:22.998Z,73.26
2023-08-28T04:44:25.388Z,73.77
2023-08-28T04:45:28.336Z,73.59
2023-08-28T04:46:31.826Z,73.86
2023-08-28T04:47:33.906Z,73.86
2023-08-28T04:48:36.749Z,73.81
2023-08-28T04:49:39.703Z,74.23
2023-08-28T04:50:42.315Z,73.71
2023-08-28T04:51:45.568Z,73.38
2023-08-28T04:52:47.924Z,73.06
2023-08-28T04:53:50.258Z,73.30
2023-08-28T04:54:52.912Z,73.28
2023-08-28T04:55:55.826Z,73.41
2023-08-28T04:56:59.485Z,73.32
2023-08-28T04:58:01.797Z,72.66
2023-08-28T04:59:04.373Z,72.43
2023-08-28T05:00:08.587Z,72.49
2023-08-28T05:01:11.304Z,72.19
2023-08-28T05:02:13.837Z,71.47
2023-08-28T05:03:16.251Z,71.61
2023-08-28T05:04:20.835Z,71.92
2023-08-28T05:05:25.144Z,71.51
2023-08-28T05:06:29.185Z,71.43
2023-08-28T05:07:31.548Z,71.13
2023-08-28T05:08:33.831Z,70.70
2023-08-28T05:09:36.097Z,70.51
2023-08-28T05:10:38.503Z,70.89
2023-08-28T05:11:42.239Z,69.81
2023-08-28T05:12:45.148Z,69.98
2023-08-28T05:13:47.409Z,68.83
2023-08-28T05:14:49.996Z,68.77
2023-08-28T05:15:52.873Z,68.66
2023-08-28T05:16:55.344Z,69.25
2023-08-28T05:17:57.642Z,69.02
2023-08-28T05:18:59.847Z,68.87
2023-08-28T05:20:03.285Z,68.88
2023-08-28T05:21:06.201Z,68.88
2023-08-28T05:22:08.712Z,69.61
2023-08-28T05:23:12.190Z,69.11
2023-08-28T05:24:14.539Z,69.11
2023-08-28T05:25:16.823Z,68.87
2023-08-28T05:26:19.291Z,69.09
2023-08-28T05:27:21.446Z,69.09
2023-08-28T05:28:24.649Z,69.78
2023-08-28T05:29:27.070Z,69.53
2023-08-28T05:30:30.394Z,68.87
2023-08-28T05:31:32.830Z,68.90
2023-08-28T05:32:35.988Z,69.04
2023-08-28T05:33:39.433Z,69.03
2023-08-28T05:34:41.989Z,69.13
2023-08-28T05:35:45.666Z,69.51
2023-08-28T05:36:48.547Z,69.56
2023-08-28T05:37:50.871Z,69.22
2023-08-28T05:38:53.053Z,69.17
2023-08-28T05:39:55.320Z,69.13
2023-08-28T05:40:57.935Z,68.99
2023-08-28T05:42:00.333Z,69.68
2023-08-28T05:43:03.007Z,69.39
2023-08-28T05:44:06.046Z,69.03
2023-08-28T05:45:11.364Z,69.57
2023-08-28T05:46:14.456Z,69.78
2023-08-28T05:47:16.789Z,69.13
2023-08-28T05:48:19.087Z,68.61
2023-08-28T05:49:21.567Z,68.16
2023-08-28T05:50:25.317Z,68.04
2023-08-28T05:51:27.653Z,67.67
2023-08-28T05:52:30.831Z,67.68
2023-08-28T05:53:33.686Z,67.57
2023-08-28T05:54:36.013Z,67.31
2023-08-28T05:55:38.494Z,67.05
2023-08-28T05:56:41.148Z,66.52
2023-08-28T05:57:43.440Z,66.32
2023-08-28T05:58:48.300Z,66.13
2023-08-28T05:59:52.692Z,65.89
2023-08-28T06:00:55.095Z,65.58
2023-08-28T06:01:58.215Z,65.60
2023-08-28T06:03:00.767Z,65.69
2023-08-28T06:04:05.103Z,66.28
2023-08-28T06:05:09.475Z,66.28
2023-08-28T06:06:12.940Z,66.81
2023-08-28T06:07:16.591Z,67.80
2023-08-28T06:08:19.212Z,67.19
2023-08-28T06:09:25.280Z,67.12
2023-08-28T06:10:29.722Z,67.27
2023-08-28T06:11:32.658Z,67.25
2023-08-28T06:12:36.333Z,66.91
2023-08-28T06:13:38.927Z,66.96
2023-08-28T06:14:41.676Z,66.56
2023-08-28T06:15:43.934Z,66.27
2023-08-28T06:16:48.542Z,65.90
2023-08-28T06:17:51.653Z,66.07
2023-08-28T06:18:54.356Z,66.21
2023-08-28T06:19:57.019Z,65.45
2023-08-28T06:20:59.547Z,65.56
2023-08-28T06:22:06.598Z,65.39
2023-08-28T06:23:08.998Z,65.97
2023-08-28T06:24:13.095Z,66.52
2023-08-28T06:25:15.892Z,67.05
2023-08-28T06:26:18.278Z,66.86
2023-08-28T06:27:20.746Z,66.85
2023-08-28T06:28:23.133Z,66.75
2023-08-28T06:29:26.049Z,66.78
2023-08-28T06:30:28.709Z,66.71
2023-08-28T06:31:31.181Z,66.26
2023-08-28T06:32:34.468Z,66.05
2023-08-28T06:33:37.335Z,65.71
2023-08-28T06:34:39.667Z,65.63
2023-08-28T06:35:42.374Z,65.04
2023-08-28T06:36:46.755Z,65.04
2023-08-28T06:37:49.141Z,65.15
2023-08-28T06:38:52.892Z,65.42
2023-08-28T06:39:55.282Z,65.86
2023-08-28T06:40:57.922Z,65.35
2023-08-28T06:42:01.055Z,64.99
2023-08-28T06:43:05.072Z,64.76
2023-08-28T06:44:08.641Z,64.49
2023-08-28T06:45:12.238Z,64.17
2023-08-28T06:46:15.420Z,64.03
2023-08-28T06:47:18.550Z,63.83
2023-08-28T06:48:21.496Z,63.88
2023-08-28T06:49:23.864Z,63.75
2023-08-28T06:50:26.128Z,63.33
2023-08-28T06:51:30.367Z,63.07
2023-08-28T06:52:33.144Z,62.71
2023-08-28T06:53:35.592Z,63.11
2023-08-28T06:54:50.952Z,63.14
2023-08-28T06:55:42.818Z,63.15
2023-08-28T06:56:46.190Z,63.04
2023-08-28T06:57:50.105Z,63.41
2023-08-28T06:58:52.575Z,64.36
2023-08-28T06:59:55.043Z,64.68
2023-08-28T07:00:59.225Z,65.31
2023-08-28T07:02:01.594Z,65.41
2023-08-28T07:03:04.777Z,64.75
2023-08-28T07:04:07.535Z,65.99
2023-08-28T07:05:09.834Z,66.96
2023-08-28T07:06:14.297Z,66.41
2023-08-28T07:07:19.546Z,66.51
2023-08-28T07:08:22.551Z,67.12
2023-08-28T07:09:26.103Z,67.17
2023-08-28T07:10:29.811Z,66.41
2023-08-28T07:11:32.667Z,66.21
2023-08-28T07:12:35.552Z,66.21
2023-08-28T07:13:37.918Z,65.41
2023-08-28T07:14:40.229Z,65.34
2023-08-28T07:15:46.186Z,65.75
2023-08-28T07:16:48.789Z,65.14
2023-08-28T07:17:51.688Z,64.85
2023-08-28T07:18:54.022Z,65.10
2023-08-28T07:19:56.294Z,65.03
2023-08-28T07:20:58.884Z,64.08
2023-08-28T07:22:01.246Z,63.47
2023-08-28T07:23:05.606Z,63.55
2023-08-28T07:24:08.858Z,63.55
2023-08-28T07:25:11.230Z,63.83
2023-08-28T07:26:14.066Z,63.64
2023-08-28T07:27:17.320Z,63.19
2023-08-28T07:28:21.996Z,62.93
2023-08-28T07:29:24.316Z,63.01
2023-08-28T07:30:27.801Z,63.04
2023-08-28T07:31:30.193Z,63.08
2023-08-28T07:32:34.032Z,63.31
2023-08-28T07:33:38.869Z,62.99
2023-08-28T07:34:41.409Z,62.47
2023-08-28T07:35:45.025Z,62.02
2023-08-28T07:36:47.867Z,62.27
2023-08-28T07:37:50.275Z,61.28
2023-08-28T07:38:52.562Z,60.64
2023-08-28T07:39:55.190Z,59.93
2023-08-28T07:40:57.787Z,59.64
2023-08-28T07:42:00.350Z,59.41
2023-08-28T07:43:03.931Z,58.34
2023-08-28T07:44:06.941Z,58.04
2023-08-28T07:45:09.906Z,57.56
2023-08-28T07:46:12.873Z,56.95
2023-08-28T07:47:15.957Z,55.70
2023-08-28T07:48:18.317Z,55.34
2023-08-28T07:49:20.609Z,55.65
2023-08-28T07:50:23.672Z,55.61
2023-08-28T07:51:26.991Z,55.42
2023-08-28T07:52:30.214Z,54.77
2023-08-28T07:53:33.804Z,54.89
2023-08-28T07:54:37.537Z,54.25
2023-08-28T07:55:40.156Z,54.25
2023-08-28T07:56:42.854Z,54.38
2023-08-28T07:57:45.059Z,54.44
2023-08-28T07:58:47.116Z,53.72
2023-08-28T07:59:49.199Z,53.67
2023-08-28T08:00:53.150Z,53.73
2023-08-28T08:01:56.290Z,52.93
2023-08-28T08:03:00.506Z,52.22
2023-08-28T08:04:04.549Z,52.63
2023-08-28T08:05:11.618Z,52.07
2023-08-28T08:06:16.378Z,52.03
2023-08-28T08:07:20.002Z,52.07
2023-08-28T08:08:22.259Z,51.76
2023-08-28T08:09:24.851Z,51.40
2023-08-28T08:10:27.594Z,52.11
2023-08-28T08:11:29.700Z,51.83
2023-08-28T08:12:31.841Z,51.61
2023-08-28T08:13:36.543Z,52.23
2023-08-28T08:14:40.457Z,52.39
2023-08-28T08:15:43.223Z,52.04
2023-08-28T08:16:46.713Z,52.09
2023-08-28T08:17:49.250Z,51.46
2023-08-28T08:18:52.494Z,51.51
2023-08-28T08:19:54.643Z,51.51
2023-08-28T08:20:57.835Z,51.32
2023-08-28T08:22:00.380Z,51.48
2023-08-28T08:23:02.945Z,51.53
2023-08-28T08:24:06.082Z,51.31
2023-08-28T08:25:10.816Z,51.43
2023-08-28T08:26:13.927Z,51.10
2023-08-28T08:27:16.137Z,50.95
2023-08-28T08:28:18.165Z,50.51
2023-08-28T08:29:20.400Z,50.29
2023-08-28T08:30:23.841Z,50.62
2023-08-28T08:31:26.253Z,51.15
2023-08-28T08:32:28.444Z,50.75
2023-08-28T08:33:31.073Z,50.68
2023-08-28T08:34:34.071Z,50.49
2023-08-28T08:35:37.039Z,50.21
2023-08-28T08:36:45.677Z,50.56
2023-08-28T08:37:50.892Z,50.53
2023-08-28T08:38:53.285Z,50.51
2023-08-28T08:39:55.793Z,50.64
2023-08-28T08:41:00.456Z,50.42
2023-08-28T08:42:03.851Z,50.50
2023-08-28T08:43:06.969Z,50.25
2023-08-28T08:44:09.854Z,49.80
2023-08-28T08:45:13.339Z,49.80
2023-08-28T08:46:21.195Z,49.38
2023-08-28T08:47:24.407Z,49.19
2023-08-28T08:48:28.408Z,49.29
2023-08-28T08:49:33.437Z,49.45
2023-08-28T08:50:39.340Z,48.38
2023-08-28T08:51:48.539Z,49.04
2023-08-28T08:52:51.076Z,49.23
2023-08-28T08:54:09.720Z,49.72
2023-08-28T08:55:30.594Z,50.02
2023-08-28T08:56:35.181Z,50.60
2023-08-28T08:57:41.070Z,50.67
2023-08-28T08:58:46.723Z,49.87
2023-08-28T08:59:52.488Z,49.89
2023-08-28T09:00:56.321Z,49.46
2023-08-28T09:02:00.592Z,48.98
2023-08-28T09:03:04.147Z,49.26
2023-08-28T09:04:08.937Z,49.37
2023-08-28T09:05:11.406Z,48.23
2023-08-28T09:06:16.016Z,48.17
2023-08-28T09:07:19.637Z,49.03
2023-08-28T09:08:25.255Z,48.25
2023-08-28T09:09:27.908Z,48.18
2023-08-28T09:10:30.713Z,48.36
2023-08-28T09:11:33.501Z,48.15
2023-08-28T09:12:35.749Z,48.27
2023-08-28T09:13:39.081Z,48.13
2023-08-28T09:14:42.106Z,48.68
2023-08-28T09:15:44.708Z,47.87
2023-08-28T09:16:47.227Z,47.28
2023-08-28T09:17:49.658Z,47.00
2023-08-28T09:18:53.284Z,46.79
2023-08-28T09:19:55.960Z,46.50
2023-08-28T09:21:09.025Z,45.92
2023-08-28T09:22:11.554Z,47.13
2023-08-28T09:23:14.277Z,45.24
2023-08-28T09:24:22.099Z,46.27
2023-08-28T09:25:25.500Z,46.27
2023-08-28T09:26:28.210Z,46.56
2023-08-28T09:27:31.620Z,45.59
2023-08-28T09:28:34.449Z,45.68
2023-08-28T09:29:40.242Z,44.99
2023-08-28T09:30:45.615Z,45.54
2023-08-28T09:31:49.580Z,45.13
2023-08-28T09:32:53.215Z,46.26
2023-08-28T09:34:07.347Z,45.17
2023-08-28T09:35:00.188Z,45.17
2023-08-28T09:36:02.733Z,45.35
2023-08-28T09:37:06.613Z,44.00
2023-08-28T09:38:14.115Z,44.29
2023-08-28T09:39:16.947Z,45.83
2023-08-28T09:40:34.829Z,45.28
2023-08-28T09:41:46.337Z,45.95
2023-08-28T09:42:49.052Z,46.55
2023-08-28T09:43:52.612Z,46.95
2023-08-28T09:44:56.341Z,46.54
2023-08-28T09:46:00.961Z,46.05
2023-08-28T09:47:05.496Z,46.39
2023-08-28T09:48:08.690Z,45.70
2023-08-28T09:49:14.984Z,45.90
2023-08-28T09:50:20.017Z,46.49
2023-08-28T09:51:22.406Z,46.73
2023-08-28T09:52:28.542Z,45.88
2023-08-28T09:53:33.663Z,46.64
2023-08-28T09:54:37.439Z,46.37
2023-08-28T09:55:42.898Z,46.52
2023-08-28T09:56:45.830Z,46.65
2023-08-28T09:57:48.234Z,47.40
2023-08-28T09:58:50.656Z,46.20
2023-08-28T09:59:54.612Z,46.38
2023-08-28T10:00:59.164Z,46.83
2023-08-28T10:02:12.790Z,46.38
2023-08-28T10:03:15.425Z,46.14
2023-08-28T10:04:21.947Z,46.19
2023-08-28T10:05:25.684Z,46.00
2023-08-28T10:06:31.550Z,45.64
2023-08-28T10:07:36.045Z,44.09
2023-08-28T10:08:39.307Z,43.98
2023-08-28T10:09:44.069Z,43.00
2023-08-28T10:10:53.096Z,43.23
2023-08-28T10:11:58.612Z,43.17
2023-08-28T10:13:06.376Z,44.15
2023-08-28T10:14:13.173Z,42.40
2023-08-28T10:15:17.101Z,43.66
2023-08-28T10:16:23.608Z,42.94
2023-08-28T10:17:30.918Z,43.53
2023-08-28T10:18:48.862Z,44.05
2023-08-28T10:20:01.496Z,44.79
2023-08-28T10:21:06.532Z,42.55
2023-08-28T10:22:09.470Z,43.40
2023-08-28T10:23:14.795Z,43.52
2023-08-28T10:24:19.921Z,43.98
2023-08-28T10:25:24.742Z,43.91
2023-08-28T10:26:27.530Z,43.83
2023-08-28T10:27:32.143Z,42.90
2023-08-28T10:28:36.016Z,43.77
2023-08-28T10:29:38.574Z,43.05
2023-08-28T10:30:41.933Z,43.62
2023-08-28T10:31:45.607Z,42.71
2023-08-28T10:32:49.702Z,43.15
2023-08-28T10:33:53.608Z,42.72
2023-08-28T10:34:58.736Z,42.50
2023-08-28T10:36:03.318Z,43.29
2023-08-28T10:37:17.895Z,43.24
2023-08-28T10:38:13.231Z,43.35
2023-08-28T10:39:15.489Z,42.77
2023-08-28T10:40:21.045Z,43.12
2023-08-28T10:41:25.418Z,42.86
2023-08-28T10:42:29.736Z,42.44
2023-08-28T10:43:33.505Z,42.37
2023-08-28T10:44:40.052Z,42.90
2023-08-28T10:45:43.630Z,42.69
2023-08-28T10:46:48.167Z,42.34
2023-08-28T10:47:51.087Z,42.54
2023-08-28T10:49:00.982Z,42.79
2023-08-28T10:51:18.584Z,42.45
2023-08-28T10:52:21.283Z,42.49
2023-08-28T10:53:23.401Z,42.65
2023-08-28T10:54:29.445Z,42.22
2023-08-28T10:55:36.108Z,42.28
2023-08-28T10:56:40.938Z,42.61
2023-08-28T10:57:49.630Z,42.23
2023-08-28T10:58:52.658Z,41.83
2023-08-28T10:59:57.836Z,41.81
2023-08-28T11:01:15.603Z,41.47
2023-08-28T11:02:20.212Z,41.27
2023-08-28T11:03:22.566Z,41.38
2023-08-28T11:04:34.033Z,41.13
2023-08-28T11:05:40.151Z,39.80
2023-08-28T11:06:45.114Z,40.35
2023-08-28T11:07:48.650Z,40.77
2023-08-28T11:08:54.571Z,40.92
2023-08-28T11:10:17.748Z,40.88
2023-08-28T11:11:21.479Z,41.70
2023-08-28T11:12:26.035Z,41.61
2023-08-28T11:13:28.485Z,41.39
2023-08-28T11:15:43.197Z,41.15
2023-08-28T11:16:45.732Z,40.89
2023-08-28T11:17:48.159Z,41.01
2023-08-28T11:18:53.997Z,39.13
2023-08-28T11:19:59.962Z,38.69
2023-08-28T11:21:06.095Z,39.93
2023-08-28T11:22:08.912Z,39.58
2023-08-28T11:23:15.142Z,38.88
2023-08-28T11:24:26.082Z,38.65
2023-08-28T11:25:39.816Z,39.25
2023-08-28T11:26:45.994Z,38.58
2023-08-28T11:27:50.472Z,39.00
2023-08-28T11:28:53.556Z,39.04
2023-08-28T11:29:56.457Z,38.84
2023-08-28T11:31:01.233Z,38.83
2023-08-28T11:32:04.772Z,38.48
2023-08-28T11:33:09.062Z,38.38
2023-08-28T11:34:14.604Z,38.17
2023-08-28T11:35:19.658Z,38.05
2023-08-28T11:36:22.446Z,37.24
2023-08-28T11:37:35.724Z,37.16
2023-08-28T11:38:41.527Z,37.48
2023-08-28T11:39:43.765Z,36.92
2023-08-28T11:40:46.297Z,37.23
2023-08-28T11:41:49.365Z,36.92
2023-08-28T11:43:08.978Z,37.03
2023-08-28T11:44:12.430Z,34.89
2023-08-28T11:45:25.943Z,36.60
2023-08-28T11:46:27.370Z,33.86
2023-08-28T11:47:31.630Z,35.36
2023-08-28T11:49:49.401Z,36.24
2023-08-28T11:51:00.438Z,35.05
2023-08-28T11:52:04.555Z,35.31
2023-08-28T11:53:07.975Z,35.38
2023-08-28T11:54:10.747Z,34.60
2023-08-28T11:55:12.991Z,34.09
2023-08-28T11:56:16.191Z,34.24
2023-08-28T11:57:19.864Z,33.15
2023-08-28T11:58:23.798Z,34.84
2023-08-28T11:59:27.860Z,33.95
2023-08-28T12:00:31.310Z,34.14
2023-08-28T12:01:36.080Z,34.18
2023-08-28T12:02:40.819Z,34.68
2023-08-28T12:03:44.816Z,33.51
2023-08-28T12:04:51.691Z,33.54
2023-08-28T12:06:03.456Z,32.74
2023-08-28T12:07:06.213Z,32.36
2023-08-28T12:08:08.467Z,33.30
2023-08-28T12:09:14.446Z,33.75
2023-08-28T12:10:18.979Z,33.43
2023-08-28T12:11:22.212Z,32.71
2023-08-28T12:12:25.311Z,33.31
2023-08-28T12:13:27.985Z,33.55
2023-08-28T12:14:34.315Z,32.93
2023-08-28T12:15:36.740Z,33.05
2023-08-28T12:16:39.080Z,32.67
2023-08-28T12:17:42.500Z,32.39
2023-08-28T12:18:51.851Z,33.48
2023-08-28T12:19:55.603Z,33.48
2023-08-28T12:21:04.368Z,34.05
2023-08-28T12:22:09.150Z,34.39
2023-08-28T12:23:14.835Z,33.83
2023-08-28T12:24:18.082Z,34.13
2023-08-28T12:25:33.896Z,34.34
2023-08-28T12:26:37.279Z,34.41
2023-08-28T12:27:40.183Z,34.32
2023-08-28T12:28:45.074Z,34.19
2023-08-28T12:29:47.396Z,34.90
2023-08-28T12:30:55.136Z,34.83
2023-08-28T12:31:57.781Z,34.83
2023-08-28T12:33:05.846Z,35.21
2023-08-28T12:34:10.225Z,34.95
2023-08-28T12:35:14.740Z,35.10
2023-08-28T12:36:17.921Z,34.45
2023-08-28T12:37:21.440Z,34.83
2023-08-28T12:38:25.647Z,34.64
2023-08-28T12:39:28.150Z,34.65
2023-08-28T12:40:36.077Z,34.65
2023-08-28T12:42:58.375Z,34.87
2023-08-28T12:44:00.953Z,33.94
2023-08-28T12:45:04.350Z,34.44
2023-08-28T12:46:07.057Z,33.66
2023-08-28T12:47:13.154Z,33.96
2023-08-28T12:48:15.671Z,33.62
2023-08-28T12:49:20.873Z,33.71
2023-08-28T12:50:24.314Z,33.58
2023-08-28T12:51:28.242Z,33.83
2023-08-28T12:52:30.650Z,32.86
2023-08-28T12:53:32.862Z,32.64
2023-08-28T12:54:40.312Z,32.36
2023-08-28T12:55:42.579Z,32.25
2023-08-28T12:56:44.815Z,31.51
2023-08-28T12:57:47.414Z,32.10
2023-08-28T12:58:49.987Z,30.38
2023-08-28T12:59:52.891Z,29.74
2023-08-28T13:00:56.389Z,31.22
2023-08-28T13:02:01.043Z,31.73
2023-08-28T13:03:04.755Z,31.35
2023-08-28T13:04:08.044Z,31.12
2023-08-28T13:05:12.289Z,29.79
2023-08-28T13:06:17.621Z,30.70
2023-08-28T13:07:19.819Z,30.18
2023-08-28T13:08:23.548Z,30.18
2023-08-28T13:09:26.621Z,29.91
2023-08-28T13:10:29.130Z,28.89
2023-08-28T13:11:34.881Z,28.06
2023-08-28T13:12:37.229Z,27.49
2023-08-28T13:13:39.450Z,28.13
2023-08-28T13:14:43.041Z,27.29
2023-08-28T13:15:48.011Z,27.84
2023-08-28T13:16:52.154Z,27.84
2023-08-28T13:17:54.564Z,28.26
2023-08-28T13:19:04.743Z,29.75
2023-08-28T13:20:09.881Z,30.18
2023-08-28T13:21:13.432Z,28.52
2023-08-28T13:22:16.901Z,28.96
2023-08-28T13:23:20.530Z,27.57
2023-08-28T13:24:30.093Z,27.57
2023-08-28T13:25:27.381Z,28.65
2023-08-28T13:26:29.741Z,28.85
2023-08-28T13:27:33.135Z,28.86
2023-08-28T13:28:36.588Z,28.20
2023-08-28T13:29:39.225Z,28.33
2023-08-28T13:30:41.629Z,28.55
2023-08-28T13:31:44.488Z,28.51
2023-08-28T13:32:48.937Z,27.97
2023-08-28T13:33:52.485Z,28.17
2023-08-28T13:34:57.102Z,28.27
2023-08-28T13:35:59.199Z,27.58
2023-08-28T13:37:04.407Z,27.50
2023-08-28T13:38:07.975Z,26.85
2023-08-28T13:39:10.956Z,27.30
2023-08-28T13:40:15.299Z,27.32
2023-08-28T13:41:18.998Z,27.35
2023-08-28T13:42:22.340Z,27.25
2023-08-28T13:43:24.531Z,27.45
2023-08-28T13:44:27.504Z,26.15
2023-08-28T13:45:31.463Z,26.88
2023-08-28T13:46:35.061Z,26.85
2023-08-28T13:47:37.316Z,26.84
2023-08-28T13:48:40.029Z,25.90
2023-08-28T13:49:42.329Z,25.65